Time;durP1;ratioP1;P1;durP2;ratioP2;P2;SDS_P1;SDS_P2;PMS_P1;PMS_P2;Temp;Humidity;BMP_temperature;BMP_pressure;BME280_temperature;BME280_humidity;BME280_pressure;Samples;Min_cycle;Max_cycle;Signal;HPM_P1;HPM_P2
2023/04/17 00:01:37;;;;;;;10.80;3.20;;;12.00;99.90;;;;;;5050265;28;20209;-71
2023/04/17 00:04:03;;;;;;;17.10;3.73;;;11.90;99.90;;;;;;5053133;28;20264;-70
2023/04/17 00:06:32;;;;;;;8.03;2.47;;;12.00;99.90;;;;;;5052818;28;20189;-70
2023/04/17 00:08:58;;;;;;;15.43;2.80;;;12.00;99.90;;;;;;5053060;28;20291;-70
2023/04/17 00:11:25;;;;;;;14.47;2.87;;;12.00;99.90;;;;;;5052672;28;20189;-70
2023/04/17 00:13:50;;;;;;;8.10;2.80;;;12.00;99.90;;;;;;5053143;28;20267;-70
2023/04/17 00:16:16;;;;;;;11.20;2.73;;;12.00;99.90;;;;;;5052621;28;20260;-69
2023/04/17 00:18:41;;;;;;;11.40;2.60;;;11.80;99.90;;;;;;5052822;28;20667;-69
2023/04/17 00:21:07;;;;;;;12.33;2.40;;;11.90;99.90;;;;;;5052669;28;20719;-69
2023/04/17 00:23:33;;;;;;;8.13;2.70;;;11.70;99.90;;;;;;5052379;28;20258;-69
2023/04/17 00:25:58;;;;;;;17.50;3.50;;;12.00;99.90;;;;;;5052764;28;20679;-69
2023/04/17 00:28:24;;;;;;;10.07;2.43;;;11.90;99.90;;;;;;5052277;28;20205;-69
2023/04/17 00:30:49;;;;;;;13.33;2.90;;;11.90;99.90;;;;;;5051469;28;20639;-69
2023/04/17 00:33:15;;;;;;;10.53;2.80;;;12.00;99.90;;;;;;5052321;28;20176;-69
2023/04/17 00:35:41;;;;;;;20.40;3.35;;;11.90;99.90;;;;;;5052512;28;20673;-69
2023/04/17 00:38:09;;;;;;;19.97;3.97;;;11.90;99.90;;;;;;5052236;28;20208;-70
2023/04/17 00:40:35;;;;;;;22.17;3.70;;;12.00;99.90;;;;;;5052395;28;20230;-70
2023/04/17 00:43:02;;;;;;;11.97;2.97;;;11.90;99.90;;;;;;5052207;28;20177;-71
2023/04/17 00:45:29;;;;;;;12.73;2.80;;;12.00;99.90;;;;;;5052288;28;20189;-69
2023/04/17 00:47:59;;;;;;;16.23;3.00;;;11.90;99.90;;;;;;5051907;28;20184;-69
2023/04/17 00:50:29;;;;;;;16.20;2.73;;;11.90;99.90;;;;;;5052013;28;20238;-69
2023/04/17 00:52:55;;;;;;;13.43;2.80;;;11.90;99.90;;;;;;5051892;28;20180;-69
2023/04/17 00:55:21;;;;;;;16.10;2.53;;;11.70;99.90;;;;;;5052071;28;20173;-69
2023/04/17 00:57:50;;;;;;;8.13;2.33;;;11.90;99.90;;;;;;5052144;28;20693;-69
2023/04/17 01:00:17;;;;;;;10.90;2.80;;;11.60;99.90;;;;;;5051458;28;20728;-69
2023/04/17 01:02:43;;;;;;;9.47;2.20;;;12.20;99.90;;;;;;5052023;28;20303;-69
2023/04/17 01:05:09;;;;;;;8.70;2.47;;;11.90;99.90;;;;;;5051658;28;20195;-69
2023/04/17 01:07:36;;;;;;;12.30;2.27;;;11.80;99.90;;;;;;5052235;28;20181;-69
2023/04/17 01:10:02;;;;;;;11.47;2.37;;;11.80;99.90;;;;;;5051571;28;20169;-69
2023/04/17 01:12:28;;;;;;;9.23;2.17;;;11.80;99.90;;;;;;5051863;28;20192;-69
2023/04/17 01:14:55;;;;;;;9.07;2.00;;;11.80;99.90;;;;;;5051424;28;20193;-69
2023/04/17 01:17:22;;;;;;;9.90;2.30;;;11.50;99.90;;;;;;5051678;28;20667;-69
2023/04/17 01:19:48;;;;;;;12.03;2.70;;;11.80;99.90;;;;;;5051392;28;20185;-69
2023/04/17 01:22:15;;;;;;;9.23;2.10;;;11.70;99.90;;;;;;5051506;28;20311;-69
2023/04/17 01:24:42;;;;;;;17.17;2.50;;;11.70;99.90;;;;;;5051435;28;20177;-68
2023/04/17 01:27:08;;;;;;;78.83;8.03;;;11.70;99.90;;;;;;5051506;28;20173;-69
2023/04/17 01:29:34;;;;;;;74.13;7.40;;;11.70;99.90;;;;;;5051607;28;20585;-69
2023/04/17 01:32:00;;;;;;;31.17;3.60;;;11.70;99.90;;;;;;5051030;28;20181;-69
2023/04/17 01:34:26;;;;;;;9.80;2.20;;;11.70;99.90;;;;;;5051521;28;20782;-69
2023/04/17 01:36:52;;;;;;;12.20;2.77;;;11.70;99.90;;;;;;5051040;28;20173;-69
2023/04/17 01:39:17;;;;;;;13.77;2.90;;;11.70;99.90;;;;;;5050172;28;20242;-69
2023/04/17 01:41:43;;;;;;;14.83;2.97;;;11.60;99.90;;;;;;5050337;28;20217;-69
2023/04/17 01:44:09;;;;;;;14.50;2.40;;;;;;;;;;5051160;28;20300;-69
2023/04/17 01:46:35;;;;;;;11.27;2.40;;;11.70;99.90;;;;;;5049545;28;20192;-69
2023/04/17 01:49:00;;;;;;;13.60;2.00;;;11.60;99.90;;;;;;5050992;28;20707;-69
2023/04/17 01:51:26;;;;;;;7.47;2.17;;;11.70;99.90;;;;;;5050867;28;20234;-69
2023/04/17 01:53:52;;;;;;;13.93;2.20;;;11.60;99.90;;;;;;5051228;28;20181;-68
2023/04/17 01:56:18;;;;;;;9.77;2.00;;;11.80;99.90;;;;;;5050990;28;20205;-69
2023/04/17 01:58:44;;;;;;;10.07;2.10;;;11.60;99.90;;;;;;5050532;28;20258;-69
2023/04/17 02:01:10;;;;;;;10.30;2.00;;;11.20;99.90;;;;;;5050729;28;20754;-69
2023/04/17 02:03:35;;;;;;;9.60;1.63;;;11.60;99.90;;;;;;5050540;28;20220;-69
2023/04/17 02:06:01;;;;;;;10.17;2.17;;;11.60;99.90;;;;;;5050912;28;20266;-69
2023/04/17 02:08:28;;;;;;;12.50;2.73;;;11.60;99.90;;;;;;5049312;28;20181;-69
2023/04/17 02:10:54;;;;;;;13.03;2.20;;;11.80;99.90;;;;;;5050880;28;20678;-69
2023/04/17 02:13:19;;;;;;;8.87;2.00;;;11.60;99.90;;;;;;5050353;28;20190;-69
2023/04/17 02:15:45;;;;;;;9.77;2.37;;;;;;;;;;5050694;28;20196;-68
2023/04/17 02:18:11;;;;;;;11.00;2.30;;;11.50;99.90;;;;;;5050362;28;20231;-69
2023/04/17 02:20:37;;;;;;;12.27;2.50;;;11.60;99.90;;;;;;5050448;28;20180;-69
2023/04/17 02:23:04;;;;;;;8.13;2.23;;;11.60;99.90;;;;;;5050553;28;20192;-69
2023/04/17 02:25:30;;;;;;;6.60;2.20;;;11.50;99.90;;;;;;5050093;28;20178;-69
2023/04/17 02:27:56;;;;;;;9.50;1.97;;;11.80;99.90;;;;;;5050653;28;20177;-69
2023/04/17 02:30:23;;;;;;;6.53;1.93;;;11.60;99.90;;;;;;5050049;28;20704;-69
2023/04/17 02:32:53;;;;;;;8.13;2.70;;;11.50;99.90;;;;;;5050494;28;20173;-69
2023/04/17 02:35:23;;;;;;;10.13;2.13;;;11.60;99.90;;;;;;5050085;28;20181;-69
2023/04/17 02:37:49;;;;;;;11.37;2.43;;;11.60;99.90;;;;;;5050373;28;20274;-69
2023/04/17 02:40:15;;;;;;;11.37;1.97;;;11.60;99.90;;;;;;5050006;28;20213;-69
2023/04/17 02:42:41;;;;;;;6.57;2.27;;;;;;;;;;5050592;28;20675;-68
2023/04/17 02:45:08;;;;;;;9.83;2.53;;;11.60;99.90;;;;;;5049869;28;20264;-69
2023/04/17 02:47:33;;;;;;;14.77;2.30;;;11.60;99.90;;;;;;5050378;28;20185;-69
2023/04/17 02:49:59;;;;;;;11.07;2.17;;;11.60;99.90;;;;;;5049952;28;20165;-69
2023/04/17 02:52:26;;;;;;;20.60;2.67;;;11.10;99.90;;;;;;5050232;28;20192;-69
2023/04/17 02:54:52;;;;;;;5.97;2.07;;;11.60;99.90;;;;;;5054278;28;20181;-69
2023/04/17 02:57:18;;;;;;;12.80;2.50;;;11.60;99.90;;;;;;5053963;28;20173;-69
2023/04/17 02:59:43;;;;;;;5.70;1.87;;;11.60;99.90;;;;;;5054121;28;20235;-69
2023/04/17 03:02:09;;;;;;;8.93;2.50;;;11.50;99.90;;;;;;5054034;28;20236;-69
2023/04/17 03:04:37;;;;;;;13.27;2.60;;;11.50;99.90;;;;;;5054381;28;20731;-69
2023/04/17 03:07:03;;;;;;;6.97;2.70;;;11.60;99.90;;;;;;5053899;28;20254;-69
2023/04/17 03:09:29;;;;;;;7.17;2.87;;;11.40;99.90;;;;;;5054158;28;20636;-69
2023/04/17 03:11:55;;;;;;;5.13;2.07;;;11.50;99.90;;;;;;5053844;28;20740;-69
2023/04/17 03:14:21;;;;;;;7.03;2.60;;;11.30;99.90;;;;;;5053937;28;20253;-69
2023/04/17 03:16:46;;;;;;;8.57;2.57;;;11.50;99.90;;;;;;5053697;28;20181;-69
2023/04/17 03:19:12;;;;;;;10.80;2.80;;;11.40;99.90;;;;;;5053843;28;20177;-69
2023/04/17 03:21:38;;;;;;;5.67;3.00;;;;;;;;;;5053829;28;20232;-69
2023/04/17 03:24:04;;;;;;;12.27;2.70;;;11.50;99.90;;;;;;5053738;28;20182;-69
2023/04/17 03:26:29;;;;;;;18.67;3.30;;;11.50;99.90;;;;;;5053942;28;20208;-69
2023/04/17 03:28:55;;;;;;;11.23;3.13;;;11.40;99.90;;;;;;5053486;28;20662;-69
2023/04/17 03:31:22;;;;;;;8.60;2.90;;;11.40;99.90;;;;;;5053778;28;20177;-68
2023/04/17 03:33:48;;;;;;;8.37;3.17;;;11.50;99.90;;;;;;5053504;28;20704;-68
2023/04/17 03:36:14;;;;;;;22.93;2.97;;;11.50;99.90;;;;;;5053782;28;20181;-68
2023/04/17 03:38:40;;;;;;;6.50;2.87;;;11.40;99.90;;;;;;5053256;28;20185;-69
2023/04/17 03:41:06;;;;;;;11.87;2.77;;;11.40;99.90;;;;;;5053541;28;20216;-68
2023/04/17 03:43:31;;;;;;;14.03;2.93;;;11.40;99.90;;;;;;5053316;28;20187;-69
2023/04/17 03:45:57;;;;;;;14.13;3.03;;;11.40;99.90;;;;;;5053358;28;20184;-69
2023/04/17 03:48:23;;;;;;;12.33;2.70;;;11.40;99.90;;;;;;5053615;28;20186;-69
2023/04/17 03:50:50;;;;;;;8.17;2.00;;;11.40;99.90;;;;;;5053074;28;20703;-69
2023/04/17 03:53:15;;;;;;;9.60;2.70;;;11.40;99.90;;;;;;5053453;28;20181;-69
2023/04/17 03:55:41;;;;;;;11.00;2.67;;;11.20;99.90;;;;;;5052914;28;20698;-68
2023/04/17 03:58:07;;;;;;;16.33;2.77;;;11.40;99.90;;;;;;5053118;28;20181;-69
2023/04/17 04:00:32;;;;;;;11.00;2.40;;;11.40;99.90;;;;;;5052711;28;20581;-70
2023/04/17 04:05:34;;;;;;;11.23;2.70;;;11.40;99.90;;;;;;4440283;22;20237;-68
2023/04/17 04:07:59;;;;;;;12.23;2.60;;;11.50;99.90;;;;;;5028544;28;20181;-68
2023/04/17 04:10:25;;;;;;;13.37;2.77;;;11.20;99.90;;;;;;5009695;28;20178;-68
2023/04/17 04:12:50;;;;;;;12.50;2.80;;;11.40;99.90;;;;;;5023507;28;20184;-69
2023/04/17 04:15:16;;;;;;;11.63;2.70;;;11.40;99.90;;;;;;5027833;28;20182;-68
2023/04/17 04:17:41;;;;;;;9.03;3.33;;;11.40;99.90;;;;;;5024976;28;20606;-68
2023/04/17 04:20:08;;;;;;;6.97;2.50;;;11.40;99.90;;;;;;5028674;28;20201;-68
2023/04/17 04:22:34;;;;;;;7.33;2.93;;;11.40;99.90;;;;;;5019576;28;20229;-68
2023/04/17 04:25:00;;;;;;;8.73;2.90;;;11.40;99.90;;;;;;5027994;28;20174;-69
2023/04/17 04:27:26;;;;;;;8.17;2.83;;;11.40;99.90;;;;;;5027767;28;20185;-68
2023/04/17 04:29:57;;;;;;;12.90;3.20;;;11.30;99.90;;;;;;5028015;28;20184;-68
2023/04/17 04:32:24;;;;;;;13.43;2.73;;;;;;;;;;5025149;28;20215;-68
2023/04/17 04:34:50;;;;;;;11.10;3.10;;;11.30;99.90;;;;;;5027341;28;20185;-68
2023/04/17 04:37:16;;;;;;;12.27;3.43;;;11.30;99.90;;;;;;5026218;28;20177;-68
2023/04/17 04:39:42;;;;;;;7.27;2.50;;;11.50;99.90;;;;;;5026036;28;20229;-68
2023/04/17 04:42:08;;;;;;;10.67;2.93;;;11.40;99.90;;;;;;5026967;28;20303;-69
2023/04/17 04:44:36;;;;;;;8.47;2.60;;;11.40;99.90;;;;;;5025992;28;20713;-68
2023/04/17 04:47:01;;;;;;;10.10;3.33;;;11.40;99.90;;;;;;5027281;28;20268;-68
2023/04/17 04:49:27;;;;;;;6.97;3.30;;;11.40;99.90;;;;;;5023105;28;20269;-70
2023/04/17 04:51:52;;;;;;;8.07;2.83;;;11.40;99.90;;;;;;5028027;28;20182;-68
2023/04/17 04:54:18;;;;;;;10.33;3.17;;;11.40;99.90;;;;;;5023287;28;20175;-68
2023/04/17 04:56:44;;;;;;;9.40;2.63;;;11.40;99.90;;;;;;5028202;28;20194;-68
2023/04/17 04:59:10;;;;;;;14.83;3.03;;;11.40;99.90;;;;;;5024397;28;20178;-70
2023/04/17 05:01:38;;;;;;;8.03;3.20;;;11.40;99.90;;;;;;5027119;28;20221;-68
2023/04/17 05:04:04;;;;;;;9.73;3.17;;;11.40;99.90;;;;;;5025271;28;20240;-69
2023/04/17 05:06:30;;;;;;;7.17;3.17;;;11.40;99.90;;;;;;5025661;28;20225;-69
2023/04/17 05:08:55;;;;;;;15.10;3.27;;;11.40;99.90;;;;;;5026663;28;20180;-68
2023/04/17 05:11:21;;;;;;;11.73;3.30;;;;;;;;;;5024515;28;20182;-69
2023/04/17 05:13:47;;;;;;;7.43;3.17;;;11.40;99.90;;;;;;5027033;28;20182;-69
2023/04/17 05:16:12;;;;;;;8.70;3.10;;;11.50;99.90;;;;;;5023098;28;20735;-69
2023/04/17 05:18:38;;;;;;;10.50;3.53;;;11.20;99.90;;;;;;5027737;28;20270;-68
2023/04/17 05:21:04;;;;;;;11.93;3.37;;;11.40;99.90;;;;;;5020781;28;20628;-70
2023/04/17 05:23:30;;;;;;;10.03;3.10;;;11.40;99.90;;;;;;5027493;28;20182;-69
2023/04/17 05:25:55;;;;;;;13.40;3.53;;;11.50;99.90;;;;;;5023785;28;20210;-69
2023/04/17 05:28:21;;;;;;;12.77;3.17;;;11.40;99.90;;;;;;5026512;28;20200;-69
2023/04/17 05:30:47;;;;;;;14.80;3.47;;;11.40;99.90;;;;;;5024959;28;20706;-69
2023/04/17 05:33:13;;;;;;;16.73;4.03;;;11.60;99.90;;;;;;5025091;28;20178;-69
2023/04/17 05:35:38;;;;;;;18.83;3.17;;;11.50;99.90;;;;;;5026285;28;20189;-69
2023/04/17 05:38:06;;;;;;;15.03;3.37;;;11.50;99.90;;;;;;5023599;28;20175;-69
2023/04/17 05:40:32;;;;;;;17.73;3.60;;;11.50;99.90;;;;;;5026245;28;20243;-68
2023/04/17 05:43:10;;;;;;;15.80;3.70;;;11.50;99.90;;;;;;5023355;28;20221;-70
2023/04/17 05:45:36;;;;;;;15.33;3.27;;;11.50;99.90;;;;;;5017863;28;20174;-69
2023/04/17 05:48:02;;;;;;;15.80;3.17;;;11.40;99.90;;;;;;5026663;28;20535;-69
2023/04/17 05:50:28;;;;;;;11.47;3.37;;;;;;;;;;5009168;28;20186;-69
2023/04/17 05:52:54;;;;;;;12.87;3.20;;;11.50;99.90;;;;;;5022619;28;20178;-69
2023/04/17 05:55:20;;;;;;;11.13;3.63;;;11.50;99.90;;;;;;5026879;28;20276;-70
2023/04/17 05:57:45;;;;;;;7.70;2.90;;;11.60;99.90;;;;;;5022886;28;20186;-69
2023/04/17 06:00:12;;;;;;;15.80;3.20;;;11.50;99.90;;;;;;5026364;28;20244;-69
2023/04/17 06:02:43;;;;;;;15.57;3.60;;;11.30;99.90;;;;;;5023694;28;20218;-69
2023/04/17 06:05:10;;;;;;;16.63;3.43;;;;;;;;;;5025818;28;20228;-69
2023/04/17 06:07:37;;;;;;;9.17;3.40;;;;;;;;;;5023893;28;20267;-69
2023/04/17 06:10:04;;;;;;;7.83;2.90;;;11.60;99.90;;;;;;5025002;28;20201;-70
2023/04/17 06:12:30;;;;;;;15.93;3.37;;;11.60;99.90;;;;;;5024810;28;20681;-69
2023/04/17 06:14:56;;;;;;;22.40;4.03;;;11.60;99.90;;;;;;5023779;28;20632;-69
2023/04/17 06:17:22;;;;;;;19.03;3.90;;;11.60;99.90;;;;;;5025748;28;20196;-69
2023/04/17 06:19:48;;;;;;;11.53;3.70;;;11.60;99.90;;;;;;5022960;28;20192;-68
2023/04/17 06:22:13;;;;;;;17.67;3.63;;;11.60;99.90;;;;;;5008375;28;20739;-69
2023/04/17 06:24:39;;;;;;;13.23;3.67;;;11.80;99.90;;;;;;5022195;28;20178;-69
2023/04/17 06:27:05;;;;;;;12.23;3.40;;;11.70;99.90;;;;;;5026408;28;20568;-69
2023/04/17 06:29:30;;;;;;;12.87;3.83;;;11.60;99.90;;;;;;5022064;28;20217;-69
2023/04/17 06:31:56;;;;;;;7.03;3.43;;;11.60;99.90;;;;;;5025454;28;20189;-69
2023/04/17 06:34:22;;;;;;;8.40;3.73;;;11.60;99.90;;;;;;5005360;28;20614;-69
2023/04/17 06:36:48;;;;;;;15.13;3.70;;;;;;;;;;5024498;28;20173;-69
2023/04/17 06:39:13;;;;;;;11.03;3.87;;;11.60;99.90;;;;;;5024360;28;20566;-69
2023/04/17 06:41:39;;;;;;;8.17;3.53;;;11.70;99.90;;;;;;5023438;28;20570;-69
2023/04/17 06:44:05;;;;;;;12.83;3.80;;;11.80;99.90;;;;;;5025185;28;20178;-68
2023/04/17 06:46:31;;;;;;;11.13;3.80;;;11.80;99.90;;;;;;5022318;28;20190;-69
2023/04/17 06:48:58;;;;;;;13.53;3.70;;;11.90;99.90;;;;;;5025826;28;20666;-68
2023/04/17 06:51:26;;;;;;;10.20;4.10;;;11.90;99.90;;;;;;5024815;28;20200;-69
2023/04/17 06:53:52;;;;;;;6.90;3.50;;;12.00;99.90;;;;;;5025936;28;20524;-69
2023/04/17 06:56:18;;;;;;;13.27;4.13;;;12.00;99.90;;;;;;5021224;28;20187;-69
2023/04/17 06:58:44;;;;;;;9.80;3.93;;;;;;;;;;5026035;28;20182;-69
2023/04/17 07:01:13;;;;;;;19.10;4.07;;;12.10;99.90;;;;;;5022485;28;20210;-70
2023/04/17 07:03:39;;;;;;;13.80;3.50;;;12.00;99.90;;;;;;5025236;28;20189;-69
2023/04/17 07:06:06;;;;;;;12.37;3.47;;;12.20;99.90;;;;;;5023223;28;20234;-69
2023/04/17 07:08:32;;;;;;;14.97;3.60;;;12.20;99.90;;;;;;5023816;28;20235;-70
2023/04/17 07:10:58;;;;;;;15.13;3.93;;;12.20;99.90;;;;;;5024466;28;20182;-69
2023/04/17 07:13:23;;;;;;;11.00;3.80;;;12.20;99.90;;;;;;5022628;28;20255;-69
2023/04/17 07:15:53;;;;;;;12.30;3.50;;;12.10;99.90;;;;;;5024966;28;20285;-70
2023/04/17 07:18:20;;;;;;;11.37;4.00;;;12.30;99.90;;;;;;5022174;28;20189;-69
2023/04/17 07:20:49;;;;;;;13.93;4.03;;;11.90;99.90;;;;;;5025307;28;20236;-69
2023/04/17 07:23:14;;;;;;;9.87;4.17;;;12.10;99.90;;;;;;5024910;28;20182;-69
2023/04/17 07:25:40;;;;;;;15.27;5.03;;;12.10;99.90;;;;;;5025762;28;20174;-69
2023/04/17 07:28:06;;;;;;;11.27;3.67;;;12.00;99.90;;;;;;5021124;28;20243;-69
2023/04/17 07:30:32;;;;;;;8.83;3.73;;;12.10;99.90;;;;;;5025587;28;20186;-69
2023/04/17 07:32:59;;;;;;;13.60;3.70;;;11.70;99.90;;;;;;5022033;28;20633;-69
2023/04/17 07:35:24;;;;;;;10.07;3.73;;;12.00;99.90;;;;;;5024501;28;20549;-70
2023/04/17 07:37:50;;;;;;;10.20;3.67;;;12.30;99.90;;;;;;5023461;28;20201;-69
2023/04/17 07:40:17;;;;;;;16.97;4.20;;;12.10;99.90;;;;;;5005809;28;20182;-69
2023/04/17 07:42:42;;;;;;;15.10;3.90;;;12.00;99.90;;;;;;5026717;28;20214;-69
2023/04/17 07:45:09;;;;;;;11.93;4.80;;;12.00;99.90;;;;;;5025298;28;20512;-69
2023/04/17 07:47:35;;;;;;;16.50;4.70;;;12.10;99.90;;;;;;5028858;28;20217;-69
2023/04/17 07:50:00;;;;;;;17.23;4.83;;;12.10;99.90;;;;;;5024879;28;20547;-69
2023/04/17 07:52:26;;;;;;;19.43;5.00;;;12.20;99.90;;;;;;5029126;28;20174;-69
2023/04/17 07:54:51;;;;;;;17.40;4.60;;;12.20;99.90;;;;;;5024509;28;20185;-69
2023/04/17 07:57:17;;;;;;;13.33;4.70;;;12.10;99.90;;;;;;5028420;28;20180;-69
2023/04/17 07:59:43;;;;;;;18.00;5.43;;;12.10;99.90;;;;;;5025846;28;20235;-69
2023/04/17 08:02:09;;;;;;;17.50;5.43;;;12.80;99.90;;;;;;5009473;28;20225;-69
2023/04/17 08:04:36;;;;;;;19.53;5.63;;;11.80;99.90;;;;;;5027252;28;20220;-70
2023/04/17 08:07:02;;;;;;;16.27;5.70;;;12.00;99.90;;;;;;5026071;28;20193;-70
2023/04/17 08:09:27;;;;;;;17.50;5.90;;;12.00;99.90;;;;;;5028033;28;20170;-71
2023/04/17 08:11:53;;;;;;;13.40;5.80;;;11.80;99.90;;;;;;5025029;28;20190;-68
2023/04/17 08:14:19;;;;;;;19.40;6.83;;;11.80;99.90;;;;;;5028664;28;20671;-69
2023/04/17 08:16:46;;;;;;;19.70;5.97;;;11.90;99.90;;;;;;5025937;28;20175;-69
2023/04/17 08:19:12;;;;;;;11.23;5.90;;;12.00;99.90;;;;;;5028675;28;20217;-69
2023/04/17 08:21:38;;;;;;;21.57;6.07;;;12.10;99.90;;;;;;5024451;28;20206;-69
2023/04/17 08:24:04;;;;;;;14.03;5.97;;;12.10;99.90;;;;;;5028416;28;20182;-69
2023/04/17 08:26:29;;;;;;;13.07;6.43;;;12.20;99.90;;;;;;5025475;28;20182;-69
2023/04/17 08:29:00;;;;;;;16.50;6.00;;;12.30;99.90;;;;;;5026843;28;20177;-69
2023/04/17 08:31:27;;;;;;;9.63;5.03;;;12.30;99.90;;;;;;5026250;28;20520;-69
2023/04/17 08:33:52;;;;;;;8.33;4.93;;;12.30;99.90;;;;;;5026570;28;20211;-69
2023/04/17 08:36:18;;;;;;;9.80;5.37;;;12.30;99.90;;;;;;5026988;28;20711;-69
2023/04/17 08:38:46;;;;;;;7.97;4.77;;;13.00;99.90;;;;;;5025046;28;20182;-69
2023/04/17 08:41:15;;;;;;;10.43;5.60;;;12.50;99.90;;;;;;5027131;28;20710;-69
2023/04/17 08:43:42;;;;;;;9.87;4.80;;;12.60;99.90;;;;;;5024644;28;20209;-69
2023/04/17 08:46:08;;;;;;;9.25;5.45;;;12.60;99.90;;;;;;5027743;28;20177;-69
2023/04/17 08:48:33;;;;;;;11.25;5.55;;;12.60;99.90;;;;;;5024101;28;20556;-69
2023/04/17 08:50:59;;;;;;;11.55;6.43;;;12.50;99.90;;;;;;5026995;28;20236;-69
2023/04/17 08:53:25;;;;;;;9.57;5.63;;;12.50;99.90;;;;;;5023689;28;20178;-69
2023/04/17 08:55:50;;;;;;;10.82;7.30;;;12.50;99.90;;;;;;5027824;28;20181;-69
2023/04/17 08:58:16;;;;;;;19.05;10.05;;;12.40;99.90;;;;;;5024890;28;20174;-70
2023/04/17 09:00:43;;;;;;;18.05;9.05;;;12.60;99.90;;;;;;5008704;28;20186;-70
2023/04/17 09:03:10;;;;;;;13.90;9.63;;;12.80;99.90;;;;;;5026247;28;20185;-70
2023/04/17 09:05:37;;;;;;;14.52;8.40;;;13.10;99.90;;;;;;5024969;28;20277;-70
2023/04/17 09:08:16;;;;;;;11.88;8.35;;;12.90;99.90;;;;;;5026718;28;20691;-69
2023/04/17 09:10:42;;;;;;;13.97;7.73;;;13.00;99.90;;;;;;5025958;28;20206;-70
2023/04/17 09:13:08;;;;;;;13.48;7.25;;;13.10;99.90;;;;;;5026331;28;20248;-70
2023/04/17 09:15:35;;;;;;;13.77;7.05;;;13.00;99.90;;;;;;5024520;28;20709;-69
2023/04/17 09:18:01;;;;;;;13.25;6.93;;;13.10;99.90;;;;;;5026781;28;20174;-70
2023/04/17 09:20:27;;;;;;;14.73;7.00;;;13.10;99.90;;;;;;5023815;28;20677;-69
2023/04/17 09:23:01;;;;;;;18.60;6.97;;;13.10;99.90;;;;;;5027623;28;20224;-70
2023/04/17 09:25:27;;;;;;;15.70;6.75;;;12.90;99.90;;;;;;5009067;28;20190;-70
2023/04/17 09:27:54;;;;;;;12.45;7.05;;;12.90;99.90;;;;;;5027583;28;20181;-70
2023/04/17 09:30:21;;;;;;;11.20;7.68;;;;;;;;;;5022897;28;20232;-69
2023/04/17 09:32:47;;;;;;;15.05;8.00;;;12.90;99.90;;;;;;5027361;28;20173;-70
2023/04/17 09:35:26;;;;;;;13.70;7.63;;;13.00;99.90;;;;;;5023095;28;20182;-70
2023/04/17 09:37:53;;;;;;;11.95;7.22;;;13.10;99.90;;;;;;5023721;28;20181;-70
2023/04/17 09:40:21;;;;;;;22.30;8.95;;;13.10;99.90;;;;;;5022615;28;20206;-69
2023/04/17 09:42:54;;;;;;;15.70;7.53;;;13.10;99.90;;;;;;5027084;28;20209;-70
2023/04/17 09:45:21;;;;;;;17.55;9.10;;;12.80;99.90;;;;;;5022434;28;20186;-70
2023/04/17 09:47:47;;;;;;;16.13;8.68;;;13.00;99.90;;;;;;5027050;28;20193;-70
2023/04/17 09:50:17;;;;;;;15.00;8.80;;;13.00;99.90;;;;;;5005405;28;20592;-69
2023/04/17 09:52:43;;;;;;;16.02;8.23;;;13.00;99.90;;;;;;5026703;28;20235;-70
2023/04/17 09:55:10;;;;;;;13.35;8.05;;;12.90;99.90;;;;;;5023491;28;20668;-69
2023/04/17 09:57:39;;;;;;;11.55;8.40;;;13.00;99.90;;;;;;5025832;28;20192;-69
2023/04/17 10:00:10;;;;;;;12.57;8.73;;;13.10;99.90;;;;;;5024084;28;20197;-69
2023/04/17 10:02:38;;;;;;;12.95;8.90;;;13.00;99.90;;;;;;5025470;28;20229;-69
2023/04/17 10:05:07;;;;;;;15.65;8.85;;;13.00;99.90;;;;;;5024196;28;20258;-69
2023/04/17 10:07:35;;;;;;;13.82;8.82;;;13.20;99.90;;;;;;5025040;28;20185;-69
2023/04/17 10:10:07;;;;;;;13.45;8.30;;;13.50;99.90;;;;;;5025081;28;20246;-70
2023/04/17 10:12:35;;;;;;;16.48;8.50;;;13.90;99.90;;;;;;5024527;28;20656;-70
2023/04/17 10:15:02;;;;;;;12.93;7.82;;;14.10;99.90;;;;;;5025019;28;20178;-70
2023/04/17 10:17:33;;;;;;;15.05;8.02;;;14.30;99.90;;;;;;5024017;28;20205;-70
2023/04/17 10:20:16;;;;;;;14.07;7.72;;;14.40;99.90;;;;;;5025459;28;20189;-70
2023/04/17 10:22:55;;;;;;;18.98;8.63;;;14.70;99.90;;;;;;5025159;28;20273;-70
2023/04/17 10:25:25;;;;;;;16.10;8.02;;;14.70;99.90;;;;;;5022281;28;20186;-70
2023/04/17 10:27:57;;;;;;;17.17;8.00;;;14.70;99.90;;;;;;5029465;28;20257;-70
2023/04/17 10:30:25;;;;;;;19.63;8.57;;;14.70;99.90;;;;;;5022237;28;20194;-70
2023/04/17 10:33:12;;;;;;;14.40;8.45;;;14.40;99.90;;;;;;5018231;28;20193;-70
2023/04/17 10:35:38;;;;;;;10.57;6.65;;;14.20;99.90;;;;;;5022475;28;20653;-70
2023/04/17 10:38:07;;;;;;;9.73;6.20;;;14.50;99.90;;;;;;5026381;28;20189;-70
2023/04/17 10:40:37;;;;;;;8.68;5.97;;;14.30;99.90;;;;;;5024954;28;20213;-71
2023/04/17 10:43:16;;;;;;;10.13;6.65;;;14.20;99.90;;;;;;5026279;28;20209;-71
2023/04/17 10:46:04;;;;;;;24.23;6.68;;;14.10;99.90;;;;;;5022492;28;20197;-71
2023/04/17 10:48:45;;;;;;;9.82;6.22;;;14.10;99.90;;;;;;5024017;28;20240;-71
2023/04/17 10:51:22;;;;;;;11.15;5.85;;;13.90;99.90;;;;;;5025908;28;20193;-70
2023/04/17 10:53:56;;;;;;;8.90;5.93;;;13.70;99.90;;;;;;5021476;28;20548;-69
2023/04/17 10:56:39;;;;;;;7.13;5.70;;;13.60;99.90;;;;;;5026033;28;20215;-69
2023/04/17 10:59:13;;;;;;;9.18;6.13;;;13.30;99.90;;;;;;5022520;28;20182;-69
2023/04/17 11:01:48;;;;;;;7.80;6.07;;;13.30;99.90;;;;;;5007297;28;20710;-69
2023/04/17 11:04:22;;;;;;;10.68;6.00;;;13.60;99.90;;;;;;5023380;28;20687;-69
2023/04/17 11:06:51;;;;;;;10.13;6.05;;;13.90;99.90;;;;;;5023851;28;20332;-69
2023/04/17 11:09:19;;;;;;;8.18;5.82;;;14.10;99.90;;;;;;5023900;28;20169;-69
2023/04/17 11:11:45;;;;;;;8.65;5.20;;;14.30;99.90;;;;;;5024610;28;20239;-69
2023/04/17 11:14:13;;;;;;;6.75;4.78;;;14.20;99.90;;;;;;5024984;28;20652;-69
2023/04/17 11:16:41;;;;;;;8.02;5.50;;;13.90;99.90;;;;;;5028866;28;20180;-70
2023/04/17 11:19:15;;;;;;;10.35;4.55;;;13.90;99.90;;;;;;5026067;28;20178;-70
2023/04/17 11:21:48;;;;;;;6.45;4.88;;;13.90;99.90;;;;;;5028993;28;20240;-70
2023/04/17 11:24:28;;;;;;;5.75;4.13;;;14.00;99.90;;;;;;5026881;28;20188;-70
2023/04/17 11:26:55;;;;;;;4.88;4.28;;;13.70;99.90;;;;;;5027358;28;20189;-70
2023/04/17 11:29:23;;;;;;;9.13;4.47;;;14.00;99.90;;;;;;5027619;28;20186;-70
2023/04/17 11:31:53;;;;;;;6.05;4.00;;;14.20;99.90;;;;;;5027947;28;20537;-70
2023/04/17 11:34:19;;;;;;;11.63;4.80;;;14.50;99.90;;;;;;5027302;28;20705;-71
2023/04/17 11:36:53;;;;;;;5.68;4.57;;;14.80;99.90;;;;;;5028596;28;20201;-70
2023/04/17 11:39:20;;;;;;;6.97;4.60;;;14.80;99.90;;;;;;5027405;28;20208;-71
2023/04/17 11:41:46;;;;;;;6.05;4.00;;;14.90;99.90;;;;;;5028411;28;20275;-70
2023/04/17 11:44:13;;;;;;;5.85;3.58;;;14.80;99.90;;;;;;5025937;28;20648;-71
2023/04/17 11:46:39;;;;;;;4.90;4.10;;;14.90;99.90;;;;;;5028717;28;20178;-70
2023/04/17 11:49:05;;;;;;;5.40;4.10;;;14.80;99.90;;;;;;5025666;28;20687;-70
2023/04/17 11:51:31;;;;;;;6.18;4.00;;;14.80;99.90;;;;;;5029311;28;20189;-70
2023/04/17 11:53:58;;;;;;;5.07;3.75;;;14.90;99.90;;;;;;5024541;28;20668;-69
2023/04/17 11:56:30;;;;;;;3.60;3.30;;;15.00;99.90;;;;;;5029182;28;20201;-69
2023/04/17 11:58:57;;;;;;;10.82;3.22;;;15.00;99.90;;;;;;5024421;28;20665;-70
2023/04/17 12:01:27;;;;;;;5.00;3.28;;;15.20;99.90;;;;;;5029062;28;20217;-71
2023/04/17 12:03:57;;;;;;;4.22;3.17;;;15.60;99.90;;;;;;5024822;28;20196;-70
2023/04/17 12:06:23;;;;;;;3.08;2.70;;;15.60;99.90;;;;;;5024202;28;20647;-69
2023/04/17 12:08:54;;;;;;;4.97;2.75;;;15.70;99.90;;;;;;5025304;28;20213;-70
2023/04/17 12:11:33;;;;;;;2.80;2.47;;;15.70;99.90;;;;;;5028600;28;20223;-70
2023/04/17 12:14:00;;;;;;;4.68;3.03;;;15.70;99.90;;;;;;5024147;28;20182;-70
2023/04/17 12:16:27;;;;;;;3.92;2.38;;;15.50;99.90;;;;;;5028880;28;20716;-70
2023/04/17 12:18:54;;;;;;;3.15;2.63;;;15.30;99.90;;;;;;5025044;28;20188;-70
2023/04/17 12:21:20;;;;;;;2.85;2.08;;;15.30;99.90;;;;;;5028117;28;20201;-69
2023/04/17 12:23:47;;;;;;;4.78;2.25;;;15.10;99.90;;;;;;5025439;28;20257;-69
2023/04/17 12:26:13;;;;;;;3.60;2.25;;;14.90;99.90;;;;;;5026784;28;20189;-69
2023/04/17 12:28:38;;;;;;;5.07;2.33;;;15.00;99.90;;;;;;5027139;28;20208;-69
2023/04/17 12:31:05;;;;;;;5.40;2.47;;;14.90;99.90;;;;;;5025549;28;20640;-69
2023/04/17 12:33:31;;;;;;;7.05;2.20;;;15.10;99.90;;;;;;5027659;28;20208;-70
2023/04/17 12:35:58;;;;;;;7.03;2.47;;;15.20;99.90;;;;;;5024752;28;20178;-69
2023/04/17 12:38:24;;;;;;;4.18;2.28;;;15.40;99.90;;;;;;5028244;28;20281;-70
2023/04/17 12:40:50;;;;;;;8.00;2.13;;;15.40;99.90;;;;;;5023986;28;20182;-70
2023/04/17 12:43:15;;;;;;;5.50;2.38;;;15.50;99.90;;;;;;5028602;28;20224;-70
2023/04/17 12:45:44;;;;;;;3.67;2.13;;;15.40;99.90;;;;;;5006524;28;20237;-70